.
WxDataArchive / Data Records for 2012-02-29
2012-02-28 February 2012 2012-03-01

Data Records for Wednesday, 29 February 2012

Time	Temp	Chill	HIndex	Humid	Dewpt	 Wind 	HiWind	WindDir	Rain 	Barom 
-----	----	-----	------	-----	-----	------	------	-------	-----	----- 
00:00	37.5	34.4	37.5	78	31.3	4	10	112	0.00	30.014 
00:05	37.3	34.2	37.3	79	31.4	4	12	90	0.00	30.014 
00:10	37.0	37.0	37.0	80	31.4	3	7	90	0.00	30.014 
00:15	37.0	33.9	37.0	80	31.4	4	10	90	0.00	30.006 
00:20	36.9	33.7	36.9	80	31.3	4	10	112	0.00	30.006 
00:25	37.0	32.9	37.0	79	31.1	5	13	90	0.00	30.006 
00:30	37.0	32.9	37.0	79	31.1	5	11	90	0.00	29.988 
00:35	37.0	32.2	37.0	79	31.1	6	12	112	0.00	29.988 
00:40	37.0	32.9	37.0	79	31.1	5	11	90	0.00	29.988 
00:45	36.9	33.7	36.9	80	31.3	4	9	90	0.00	29.989 
00:50	36.9	33.7	36.9	80	31.3	4	9	90	0.00	29.989 
00:55	36.9	32.8	36.9	81	31.6	5	12	90	0.00	29.989 
01:00	36.6	33.4	36.6	82	31.6	4	7	112	0.00	29.985 
01:05	36.5	36.5	36.5	83	31.8	3	9	90	0.00	29.985 
01:10	36.3	33.0	36.3	84	31.9	4	10	112	0.01	29.985 
01:15	36.2	32.9	36.2	85	32.1	4	7	90	0.00	29.969 
01:20	36.0	31.8	36.0	86	32.2	5	12	112	0.01	29.969 
01:25	36.0	32.7	36.0	87	32.5	4	9	90	0.01	29.969 
01:30	35.9	32.6	35.9	88	32.7	4	7	90	0.01	29.956 
01:35	35.8	32.5	35.8	88	32.6	4	7	112	0.01	29.956 
01:40	35.8	35.8	35.8	88	32.6	3	7	90	0.00	29.956 
01:45	35.8	35.8	35.8	89	32.9	3	7	90	0.02	29.946 
01:50	35.8	35.8	35.8	89	32.9	3	10	112	0.02	29.946 
01:55	35.6	35.6	35.6	90	33.0	3	7	90	0.01	29.946 
02:00	35.6	35.6	35.6	90	33.0	2	4	90	0.02	29.957 
02:05	35.6	35.6	35.6	91	33.2	3	6	90	0.02	29.957 
02:10	35.6	31.3	35.6	91	33.2	5	10	90	0.01	29.957 
02:15	35.6	30.5	35.6	91	33.2	6	10	90	0.02	29.922 
02:20	35.8	31.5	35.8	91	33.4	5	9	90	0.02	29.922 
02:25	35.6	31.3	35.6	92	33.5	5	12	90	0.02	29.922 
02:30	35.6	31.3	35.6	92	33.5	5	11	90	0.00	29.883 
02:35	35.8	30.8	35.8	92	33.7	6	14	90	0.01	29.883 
02:40	35.8	31.5	35.8	92	33.7	5	14	90	0.00	29.883 
02:45	35.9	32.6	35.9	92	33.8	4	10	112	0.02	29.892 
02:50	35.9	31.7	35.9	92	33.8	5	11	112	0.01	29.892 
02:55	35.9	32.6	35.9	92	33.8	4	13	112	0.01	29.892 
03:00	36.0	32.7	36.0	92	33.9	4	11	90	0.01	29.854 
03:05	36.0	31.0	36.0	92	33.9	6	13	90	0.01	29.854 
03:10	36.0	32.7	36.0	92	33.9	4	10	90	0.00	29.854 
03:15	36.2	32.0	36.2	92	34.1	5	13	112	0.00	29.819 
03:20	36.2	32.9	36.2	93	34.4	4	10	112	0.00	29.819 
03:25	36.5	30.9	36.5	92	34.4	7	12	90	0.00	29.819 
03:30	36.6	32.5	36.6	92	34.5	5	12	90	0.01	29.816 
03:35	36.8	31.9	36.8	92	34.7	6	13	112	0.01	29.816 
03:40	36.8	31.9	36.8	92	34.7	6	12	112	0.01	29.816 
03:45	36.8	33.6	36.8	92	34.7	4	10	90	0.01	29.820 
03:50	36.8	36.8	36.8	92	34.7	2	7	90	0.03	29.820 
03:55	36.8	33.6	36.8	92	34.7	4	11	90	0.03	29.820 
04:00	36.8	33.6	36.8	93	35.0	4	11	90	0.02	29.810 
04:05	36.9	32.8	36.9	93	35.1	5	13	112	0.01	29.810 
04:10	36.9	36.9	36.9	93	35.1	3	6	112	0.00	29.810 
04:15	37.0	33.9	37.0	93	35.2	4	6	90	0.00	29.819 
04:20	37.0	32.9	37.0	93	35.2	5	9	90	0.00	29.819 
04:25	36.9	32.8	36.9	93	35.1	5	9	112	0.00	29.819 
04:30	37.0	33.9	37.0	93	35.2	4	13	68	0.01	29.806 
04:35	36.9	32.8	36.9	93	35.1	5	12	90	0.02	29.806 
04:40	36.9	33.7	36.9	93	35.1	4	9	90	0.01	29.806 
04:45	36.9	32.8	36.9	94	35.3	5	11	90	0.01	29.801 
04:50	36.9	33.7	36.9	94	35.3	4	9	90	0.00	29.801 
04:55	36.9	32.8	36.9	94	35.3	5	10	90	0.01	29.801 
05:00	36.9	33.7	36.9	94	35.3	4	10	90	0.00	29.791 
05:05	36.9	36.9	36.9	94	35.3	3	7	90	0.00	29.791 
05:10	36.9	33.7	36.9	94	35.3	4	10	90	0.01	29.791 
05:15	36.9	33.7	36.9	94	35.3	4	9	90	0.00	29.787 
05:20	37.0	32.9	37.0	94	35.4	5	11	112	0.00	29.787 
05:25	37.0	32.9	37.0	94	35.4	5	12	90	0.00	29.787 
05:30	37.2	34.1	37.2	95	35.9	4	11	112	0.00	29.783 
05:35	37.3	34.2	37.3	95	36.0	4	14	90	0.00	29.783 
05:40	37.3	33.3	37.3	95	36.0	5	13	90	0.00	29.783 
05:45	37.3	32.5	37.3	95	36.0	6	14	90	0.00	29.772 
05:50	37.5	34.4	37.5	95	36.2	4	10	112	0.00	29.772 
05:55	37.5	33.5	37.5	95	36.2	5	9	112	0.01	29.772 
06:00	37.5	32.8	37.5	95	36.2	6	12	90	0.00	29.761 
06:05	37.5	34.4	37.5	95	36.2	4	10	90	0.00	29.761 
06:10	37.5	34.4	37.5	95	36.2	4	12	90	0.00	29.761 
06:15	37.5	37.5	37.5	95	36.2	2	7	90	0.03	29.755 
06:20	37.3	34.2	37.3	95	36.0	4	10	90	0.00	29.755 
06:25	37.3	33.3	37.3	95	36.0	5	11	90	0.01	29.755 
06:30	37.3	33.3	37.3	95	36.0	5	11	112	0.00	29.732 
06:35	37.3	37.3	37.3	95	36.0	3	7	90	0.00	29.732 
06:40	37.5	34.4	37.5	95	36.2	4	7	90	0.00	29.732 
06:45	37.5	34.4	37.5	95	36.2	4	8	90	0.00	29.739 
06:50	37.5	37.5	37.5	95	36.2	3	7	90	0.00	29.739 
06:55	37.5	34.4	37.5	95	36.2	4	10	90	0.00	29.739 
07:00	37.5	34.4	37.5	95	36.2	4	7	90	0.00	29.722 
07:05	37.5	33.5	37.5	96	36.5	5	9	90	0.00	29.722 
07:10	37.6	33.7	37.6	96	36.6	5	10	90	0.00	29.722 
07:15	37.6	34.5	37.6	96	36.6	4	6	90	0.01	29.715 
07:20	37.6	34.5	37.6	96	36.6	4	7	90	0.00	29.715 
07:25	37.6	34.5	37.6	96	36.6	4	11	90	0.00	29.715 
07:30	37.6	33.7	37.6	96	36.6	5	13	90	0.00	29.704 
07:35	37.6	33.7	37.6	96	36.6	5	10	112	0.00	29.704 
07:40	37.6	33.7	37.6	96	36.6	5	11	90	0.00	29.704 
07:45	37.6	33.7	37.6	96	36.6	5	11	90	0.00	29.692 
07:50	37.6	33.7	37.6	96	36.6	5	11	112	0.00	29.692 
07:55	37.6	33.7	37.6	96	36.6	5	10	90	0.00	29.692 
08:00	37.6	33.7	37.6	96	36.6	5	14	90	0.00	29.680 
08:05	37.6	34.5	37.6	96	36.6	4	10	90	0.00	29.680 
08:10	37.6	34.5	37.6	96	36.6	4	9	112	0.00	29.680 
08:15	37.6	33.7	37.6	96	36.6	5	14	90	0.00	29.661 
08:20	37.6	32.9	37.6	96	36.6	6	12	90	0.00	29.661 
08:25	37.6	37.6	37.6	96	36.6	3	11	90	0.00	29.661 
08:30	37.6	37.6	37.6	96	36.6	3	8	90	0.00	29.674 
08:35	37.8	34.8	37.8	96	36.8	4	7	112	0.00	29.674 
08:40	37.8	37.8	37.8	96	36.8	2	4	112	0.00	29.674 
08:45	37.8	37.8	37.8	96	36.8	2	5	90	0.00	29.678 
08:50	37.8	37.8	37.8	96	36.8	2	7	90	0.00	29.678 
08:55	37.9	34.9	37.9	96	36.9	4	9	90	0.00	29.678 
09:00	37.9	37.9	37.9	96	36.9	2	5	112	0.00	29.675 
09:05	37.9	37.9	37.9	96	36.9	3	9	90	0.00	29.675 
09:10	38.0	38.0	38.0	96	37.0	2	5	112	0.00	29.675 
09:15	38.0	38.0	38.0	96	37.0	3	8	90	0.00	29.664 
09:20	38.0	38.0	38.0	96	37.0	2	7	90	0.00	29.664 
09:25	38.2	38.2	38.2	96	37.2	2	6	112	0.00	29.664 
09:30	38.2	38.2	38.2	96	37.2	2	6	112	0.00	29.669 
09:35	38.3	38.3	38.3	96	37.3	3	7	90	0.00	29.669 
09:40	38.5	38.5	38.5	96	37.5	3	6	90	0.00	29.669 
09:45	38.6	38.6	38.6	96	37.6	2	5	112	0.00	29.656 
09:50	38.6	38.6	38.6	96	37.6	2	7	112	0.00	29.656 
09:55	38.6	38.6	38.6	96	37.6	2	6	112	0.00	29.656 
10:00	38.8	38.8	38.8	96	37.8	2	7	112	0.00	29.656 
10:05	38.9	38.9	38.9	96	37.9	3	6	90	0.00	29.656 
10:10	38.9	38.9	38.9	96	37.9	2	6	90	0.00	29.656 
10:15	38.9	38.9	38.9	96	37.9	2	5	90	0.00	29.652 
10:20	39.1	39.1	39.1	96	38.1	2	6	112	0.00	29.652 
10:25	39.1	39.1	39.1	96	38.1	3	7	112	0.00	29.652 
10:30	39.1	39.1	39.1	96	38.1	2	6	112	0.00	29.651 
10:35	39.3	39.3	39.3	97	38.5	2	5	112	0.00	29.651 
10:40	39.5	39.5	39.5	97	38.7	2	6	90	0.00	29.651 
10:45	39.9	39.9	39.9	97	39.1	2	8	90	0.00	29.643 
10:50	40.1	40.1	40.1	97	39.3	2	6	90	0.00	29.643 
10:55	40.3	40.3	40.3	97	39.5	2	7	90	0.00	29.643 
11:00	40.5	40.5	40.5	97	39.7	3	7	90	0.00	29.641 
11:05	40.8	40.8	40.8	97	40.0	2	4	90	0.00	29.641 
11:10	41.1	41.1	41.1	97	40.3	2	5	90	0.00	29.641 
11:15	41.2	41.2	41.2	97	40.4	3	5	90	0.00	29.643 
11:20	41.6	41.6	41.6	97	40.8	1	2	90	0.00	29.643 
11:25	42.2	42.2	42.2	97	41.4	1	4	90	0.00	29.643 
11:30	42.6	42.6	42.6	97	41.8	2	5	90	0.00	29.637 
11:35	42.9	42.9	42.9	97	42.1	3	5	68	0.00	29.637 
11:40	43.2	43.2	43.2	97	42.4	1	4	90	0.00	29.637 
11:45	43.3	43.3	43.3	97	42.5	3	5	90	0.00	29.635 
11:50	43.8	43.8	43.8	97	43.0	2	3	90	0.00	29.635 
11:55	44.1	44.1	44.1	97	43.3	1	3	90	0.00	29.635 
12:00	44.8	44.8	44.8	97	44.0	0	2	90	0.00	29.641 
12:05	45.1	45.1	45.1	97	44.3	1	4	90	0.00	29.641 
12:10	45.2	45.2	45.2	97	44.4	1	4	90	0.00	29.641 
12:15	45.7	45.7	45.7	97	44.9	1	3	90	0.00	29.634 
12:20	46.2	46.2	46.2	97	45.4	1	3	90	0.00	29.634 
12:25	46.8	46.8	46.8	97	46.0	1	4	90	0.00	29.634 
12:30	47.4	47.4	47.4	97	46.6	1	4	90	0.00	29.625 
12:35	48.0	48.0	48.0	97	47.2	1	4	90	0.00	29.625 
12:40	48.9	48.9	48.9	98	48.4	1	3	90	0.00	29.625 
12:45	49.5	49.5	49.5	98	49.0	1	2	90	0.00	29.608 
12:50	50.1	50.1	50.1	98	49.6	1	2	90	0.00	29.608 
12:55	51.0	51.0	51.0	98	50.5	0	2	90	0.00	29.608 
13:00	51.6	51.6	51.6	98	51.1	1	3	90	0.00	29.590 
13:05	52.2	52.2	52.2	98	51.7	0	3	90	0.00	29.590 
13:10	52.8	52.8	52.8	98	52.2	1	4	90	0.00	29.590 
13:15	53.2	53.2	53.2	97	52.4	1	5	90	0.00	29.583 
13:20	53.8	53.8	53.8	97	53.0	1	4	90	0.00	29.583 
13:25	54.5	54.5	54.5	97	53.7	1	3	90	0.00	29.583 
13:30	55.4	55.4	55.4	97	54.6	1	4	112	0.00	29.570 
13:35	56.0	56.0	56.0	96	54.9	1	3	90	0.00	29.570 
13:40	56.7	56.7	56.7	93	54.7	2	4	90	0.00	29.570 
13:45	57.6	57.6	57.6	87	53.8	2	5	112	0.00	29.551 
13:50	58.9	58.9	58.9	61	45.5	3	7	270	0.00	29.551 
13:55	61.0	61.0	61.0	45	39.5	5	12	248	0.00	29.551 
14:00	62.6	62.6	62.6	40	37.9	5	12	248	0.00	29.541 
14:05	63.9	63.9	63.9	38	37.8	4	10	248	0.00	29.541 
14:10	64.7	64.7	64.7	37	37.8	5	14	248	0.00	29.541 
14:15	65.3	65.3	65.3	38	39.0	5	10	248	0.00	29.532 
14:20	65.8	65.8	65.8	39	40.1	3	6	248	0.00	29.532 
14:25	66.3	66.3	66.3	39	40.6	2	9	248	0.00	29.532 
14:30	66.3	66.3	66.3	40	41.2	3	12	248	0.00	29.522 
14:35	66.3	66.3	66.3	39	40.6	3	8	248	0.00	29.522 
14:40	66.3	66.3	66.3	37	39.2	5	13	248	0.00	29.522 
14:45	66.1	66.1	66.1	38	39.7	4	13	248	0.00	29.516 
14:50	66.0	66.0	66.0	36	38.3	5	11	248	0.00	29.516 
14:55	66.0	66.0	66.0	38	39.7	5	9	248	0.00	29.516 
15:00	66.1	66.1	66.1	39	40.4	3	7	248	0.00	29.515 
15:05	66.1	66.1	66.1	39	40.4	3	10	248	0.00	29.515 
15:10	66.4	66.4	66.4	37	39.3	3	6	248	0.00	29.515 
15:15	66.6	66.6	66.6	33	36.6	4	12	248	0.00	29.504 
15:20	66.4	66.4	66.4	33	36.4	5	14	270	0.00	29.504 
15:25	66.4	66.4	66.4	31	34.8	5	13	270	0.00	29.504 
15:30	66.4	66.4	66.4	34	37.2	5	12	248	0.00	29.500 
15:35	66.4	66.4	66.4	35	37.9	4	14	270	0.00	29.500 
15:40	66.3	66.3	66.3	32	35.6	4	14	248	0.00	29.500 
15:45	66.3	66.3	66.3	31	34.8	5	14	248	0.00	29.499 
15:50	66.0	66.0	66.0	32	35.3	5	11	248	0.00	29.499 
15:55	65.8	65.8	65.8	34	36.6	5	12	248	0.00	29.499 
16:00	65.8	65.8	65.8	35	37.4	5	12	248	0.00	29.494 
16:05	65.6	65.6	65.6	36	37.9	4	13	248	0.00	29.494 
16:10	65.3	65.3	65.3	34	36.2	4	10	248	0.00	29.494 
16:15	65.0	65.0	65.0	37	38.1	4	13	248	0.00	29.488 
16:20	64.8	64.8	64.8	34	35.8	4	14	248	0.00	29.488 
16:25	65.0	65.0	65.0	33	35.2	4	11	248	0.00	29.488 
16:30	65.2	65.2	65.2	33	35.4	3	10	248	0.00	29.486 
16:35	65.0	65.0	65.0	31	33.6	6	13	248	0.00	29.486 
16:40	64.5	64.5	64.5	33	34.8	3	13	248	0.00	29.486 
16:45	64.3	64.3	64.3	35	36.1	3	8	248	0.00	29.479 
16:50	64.5	64.5	64.5	35	36.2	3	10	248	0.00	29.479 
16:55	64.5	64.5	64.5	35	36.2	2	6	248	0.00	29.479 
17:00	64.3	64.3	64.3	31	33.0	5	12	248	0.00	29.476 
17:05	64.2	64.2	64.2	32	33.7	5	15	248	0.00	29.476 
17:10	63.9	63.9	63.9	31	32.7	5	11	270	0.00	29.476 
17:15	63.4	63.4	63.4	33	33.8	4	11	270	0.00	29.475 
17:20	62.9	62.9	62.9	34	34.1	2	7	248	0.00	29.475 
17:25	62.7	62.7	62.7	34	33.9	3	9	248	0.00	29.475 
17:30	62.6	62.6	62.6	34	33.8	3	7	248	0.00	29.469 
17:35	62.6	62.6	62.6	34	33.8	3	9	248	0.00	29.469 
17:40	62.4	62.4	62.4	33	32.9	3	12	270	0.00	29.469 
17:45	62.1	62.1	62.1	32	31.9	4	11	248	0.00	29.470 
17:50	61.8	61.8	61.8	33	32.4	3	7	248	0.00	29.470 
17:55	61.5	61.5	61.5	33	32.1	5	12	248	0.00	29.470 
18:00	61.3	61.3	61.3	35	33.4	3	7	248	0.00	29.474 
18:05	61.0	61.0	61.0	35	33.2	2	5	248	0.00	29.474 
18:10	60.9	60.9	60.9	36	33.8	3	10	248	0.00	29.474 
18:15	60.9	60.9	60.9	35	33.1	4	13	248	0.00	29.473 
18:20	60.9	60.9	60.9	35	33.1	4	12	248	0.00	29.473 
18:25	60.5	60.5	60.5	35	32.7	4	11	248	0.00	29.473 
18:30	60.4	60.4	60.4	34	31.9	5	15	248	0.00	29.479 
18:35	60.2	60.2	60.2	34	31.7	4	11	248	0.00	29.479 
18:40	59.9	59.9	59.9	35	32.2	4	13	248	0.00	29.479 
18:45	59.8	59.8	59.8	35	32.1	3	10	248	0.00	29.484 
18:50	59.3	59.3	59.3	36	32.4	2	7	248	0.00	29.484 
18:55	59.2	59.2	59.2	35	31.6	5	13	248	0.00	29.484 
19:00	59.2	59.2	59.2	36	32.3	3	9	248	0.00	29.484 
19:05	59.0	59.0	59.0	35	31.4	3	9	248	0.00	29.484 
19:10	59.0	59.0	59.0	35	31.4	3	10	248	0.00	29.484 
19:15	59.0	59.0	59.0	36	32.1	2	6	248	0.00	29.481 
19:20	58.9	58.9	58.9	34	30.6	5	13	248	0.00	29.481 
19:25	58.9	58.9	58.9	33	29.9	4	11	248	0.00	29.481 
19:30	58.9	58.9	58.9	31	28.3	6	12	248	0.00	29.487 
19:35	58.9	58.9	58.9	31	28.3	3	10	248	0.00	29.487 
19:40	58.7	58.7	58.7	31	28.1	6	13	270	0.00	29.487 
19:45	58.7	58.7	58.7	32	28.9	4	13	248	0.00	29.493 
19:50	58.3	58.3	58.3	31	27.8	7	14	270	0.00	29.493 
19:55	57.6	57.6	57.6	33	28.7	5	12	248	0.00	29.493 
20:00	57.2	57.2	57.2	34	29.1	3	10	248	0.00	29.505 
20:05	56.7	56.7	56.7	35	29.4	3	6	248	0.00	29.505 
20:10	56.2	56.2	56.2	36	29.6	3	5	270	0.00	29.505 
20:15	55.7	55.7	55.7	37	29.8	5	11	270	0.00	29.519 
20:20	55.3	55.3	55.3	38	30.1	5	10	270	0.00	29.519 
20:25	54.7	54.7	54.7	39	30.2	4	10	270	0.00	29.519 
20:30	54.4	54.4	54.4	40	30.6	4	10	248	0.00	29.527 
20:35	54.1	54.1	54.1	41	30.9	4	9	270	0.00	29.527 
20:40	53.5	53.5	53.5	44	32.1	4	7	270	0.00	29.527 
20:45	52.6	52.6	52.6	45	31.9	6	12	270	0.00	29.546 
20:50	52.0	52.0	52.0	46	31.9	5	9	270	0.00	29.546 
20:55	51.6	51.6	51.6	47	32.0	5	8	270	0.00	29.546 
21:00	51.1	51.1	51.1	47	31.6	5	10	270	0.00	29.559 
21:05	50.8	50.8	50.8	47	31.3	5	11	270	0.00	29.559 
21:10	50.5	50.5	50.5	48	31.5	5	10	270	0.00	29.559 
21:15	50.2	50.2	50.2	49	31.8	4	7	270	0.00	29.569 
21:20	49.9	49.9	49.9	49	31.5	3	6	270	0.00	29.569 
21:25	49.6	48.4	49.6	50	31.7	4	8	270	0.00	29.569 
21:30	49.2	47.3	49.2	48	30.4	5	14	270	0.00	29.578 
21:35	48.3	45.1	48.3	47	29.0	7	18	270	0.00	29.578 
21:40	47.4	44.1	47.4	49	29.2	7	14	270	0.00	29.578 
21:45	46.8	43.3	46.8	51	29.6	7	16	270	0.00	29.591 
21:50	46.4	44.0	46.4	53	30.2	5	11	270	0.00	29.591 
21:55	46.2	44.5	46.2	55	30.9	4	10	292	0.00	29.591 
22:00	45.4	42.2	45.4	58	31.5	6	11	270	0.00	29.603 
22:05	44.6	41.9	44.6	60	31.6	5	9	270	0.00	29.603 
22:10	44.2	40.8	44.2	62	32.0	6	12	270	0.00	29.603 
22:15	43.8	40.9	43.8	64	32.4	5	12	270	0.00	29.615 
22:20	43.2	41.0	43.2	66	32.6	4	9	270	0.00	29.615 
22:25	42.6	40.3	42.6	67	32.4	4	7	270	0.00	29.615 
22:30	42.3	42.3	42.3	67	32.1	3	6	270	0.00	29.611 
22:35	42.2	42.2	42.2	68	32.4	2	5	248	0.00	29.611 
22:40	42.2	42.2	42.2	66	31.7	3	7	270	0.00	29.611 
22:45	42.2	42.2	42.2	66	31.7	3	6	248	0.00	29.611 
22:50	42.2	42.2	42.2	65	31.3	3	6	270	0.00	29.611 
22:55	42.2	39.9	42.2	64	30.9	4	10	248	0.00	29.611 
23:00	42.3	40.0	42.3	62	30.2	4	11	248	0.00	29.609 
23:05	42.6	38.9	42.6	58	28.9	6	11	270	0.00	29.609 
23:10	42.6	38.9	42.6	58	28.9	6	15	270	0.00	29.609 
23:15	42.5	40.2	42.5	59	29.2	4	9	270	0.00	29.611 
23:20	42.3	38.5	42.3	60	29.4	6	12	270	0.00	29.611 
23:25	42.2	39.9	42.2	61	29.7	4	7	248	0.00	29.611 
23:30	41.9	39.5	41.9	63	30.2	4	7	248	0.00	29.618 
23:35	41.6	41.6	41.6	63	30.0	3	10	270	0.00	29.618 
23:40	41.5	41.5	41.5	62	29.5	3	9	270	0.00	29.618 
23:45	41.1	37.8	41.1	59	27.9	5	12	270	0.00	29.621 
23:50	40.6	37.2	40.6	59	27.4	5	11	270	0.00	29.621 
23:55	40.2	36.0	40.2	58	26.6	6	12	270	0.00	29.621 

CoCoRaHS
IN-AL-39
A2 Web Hosting
Creative Commons License
GoDaddy
search engine by freefind advanced

loaded 2018-11-13 01:35:41 • last modified 2010-11-18 10:43:29
Privacy PolicyDisclaimer
• wx.awcolley.com is powered by PmWiki v.2002016 •
• all content (unless otherwise noted) © 2018 A W Colley